sensor_id;sensor_type;location;lat;lon;timestamp;temperature;humidity
7234;DHT22;3658;47.992;10.158;2023-03-11T00:01:16;21.10;32.80
7234;DHT22;3658;47.992;10.158;2023-03-11T00:03:44;21.00;32.60
7234;DHT22;3658;47.992;10.158;2023-03-11T00:06:11;21.00;32.50
7234;DHT22;3658;47.992;10.158;2023-03-11T00:08:38;21.00;32.50
7234;DHT22;3658;47.992;10.158;2023-03-11T00:11:05;21.00;32.50
7234;DHT22;3658;47.992;10.158;2023-03-11T00:13:32;21.00;32.50
7234;DHT22;3658;47.992;10.158;2023-03-11T00:16:02;21.00;32.50
7234;DHT22;3658;47.992;10.158;2023-03-11T00:18:29;21.00;32.50
7234;DHT22;3658;47.992;10.158;2023-03-11T00:20:58;21.00;32.40
7234;DHT22;3658;47.992;10.158;2023-03-11T00:23:26;21.00;32.40
7234;DHT22;3658;47.992;10.158;2023-03-11T00:25:53;21.00;32.40
7234;DHT22;3658;47.992;10.158;2023-03-11T00:28:20;21.00;32.40
7234;DHT22;3658;47.992;10.158;2023-03-11T00:30:50;21.00;32.40
7234;DHT22;3658;47.992;10.158;2023-03-11T00:33:17;21.00;32.40
7234;DHT22;3658;47.992;10.158;2023-03-11T00:35:44;21.00;32.30
7234;DHT22;3658;47.992;10.158;2023-03-11T00:38:13;21.00;32.40
7234;DHT22;3658;47.992;10.158;2023-03-11T00:40:41;21.00;32.30
7234;DHT22;3658;47.992;10.158;2023-03-11T00:43:09;21.00;32.30
7234;DHT22;3658;47.992;10.158;2023-03-11T00:45:36;21.00;32.40
7234;DHT22;3658;47.992;10.158;2023-03-11T00:48:04;21.00;32.30
7234;DHT22;3658;47.992;10.158;2023-03-11T00:50:34;21.00;32.30
7234;DHT22;3658;47.992;10.158;2023-03-11T00:53:03;21.00;32.30
7234;DHT22;3658;47.992;10.158;2023-03-11T00:55:33;21.00;32.50
7234;DHT22;3658;47.992;10.158;2023-03-11T00:58:03;21.00;32.20
7234;DHT22;3658;47.992;10.158;2023-03-11T01:00:30;21.00;32.20
7234;DHT22;3658;47.992;10.158;2023-03-11T01:02:58;21.00;32.20
7234;DHT22;3658;47.992;10.158;2023-03-11T01:05:27;21.00;32.20
7234;DHT22;3658;47.992;10.158;2023-03-11T01:07:55;21.00;32.20
7234;DHT22;3658;47.992;10.158;2023-03-11T01:10:22;21.00;32.20
7234;DHT22;3658;47.992;10.158;2023-03-11T01:12:50;21.00;32.10
7234;DHT22;3658;47.992;10.158;2023-03-11T01:15:20;21.00;32.20
7234;DHT22;3658;47.992;10.158;2023-03-11T01:17:47;21.00;32.20
7234;DHT22;3658;47.992;10.158;2023-03-11T01:20:14;21.00;32.20
7234;DHT22;3658;47.992;10.158;2023-03-11T01:22:41;21.00;32.80
7234;DHT22;3658;47.992;10.158;2023-03-11T01:25:11;21.00;32.20
7234;DHT22;3658;47.992;10.158;2023-03-11T01:27:39;21.00;32.10
7234;DHT22;3658;47.992;10.158;2023-03-11T01:30:09;20.90;32.00
7234;DHT22;3658;47.992;10.158;2023-03-11T01:32:38;21.00;32.00
7234;DHT22;3658;47.992;10.158;2023-03-11T01:35:06;21.00;32.00
7234;DHT22;3658;47.992;10.158;2023-03-11T01:37:33;21.00;32.00
7234;DHT22;3658;47.992;10.158;2023-03-11T01:40:00;21.00;32.00
7234;DHT22;3658;47.992;10.158;2023-03-11T01:42:27;21.00;32.00
7234;DHT22;3658;47.992;10.158;2023-03-11T01:44:54;21.00;32.00
7234;DHT22;3658;47.992;10.158;2023-03-11T01:47:43;21.00;32.00
7234;DHT22;3658;47.992;10.158;2023-03-11T01:50:11;21.00;32.00
7234;DHT22;3658;47.992;10.158;2023-03-11T01:52:40;21.00;32.00
7234;DHT22;3658;47.992;10.158;2023-03-11T01:55:09;21.00;32.00
7234;DHT22;3658;47.992;10.158;2023-03-11T01:57:38;21.00;32.00
7234;DHT22;3658;47.992;10.158;2023-03-11T02:00:12;21.00;32.00
7234;DHT22;3658;47.992;10.158;2023-03-11T02:02:42;21.00;32.00
7234;DHT22;3658;47.992;10.158;2023-03-11T02:05:13;21.00;31.90
7234;DHT22;3658;47.992;10.158;2023-03-11T02:07:40;21.00;32.00
7234;DHT22;3658;47.992;10.158;2023-03-11T02:10:08;21.00;31.90
7234;DHT22;3658;47.992;10.158;2023-03-11T02:12:37;21.00;31.80
7234;DHT22;3658;47.992;10.158;2023-03-11T02:15:06;21.00;31.90
7234;DHT22;3658;47.992;10.158;2023-03-11T02:17:36;21.00;31.90
7234;DHT22;3658;47.992;10.158;2023-03-11T02:20:15;21.00;31.90
7234;DHT22;3658;47.992;10.158;2023-03-11T02:22:44;21.00;31.90
7234;DHT22;3658;47.992;10.158;2023-03-11T02:25:17;21.00;31.90
7234;DHT22;3658;47.992;10.158;2023-03-11T02:27:49;21.00;31.90
7234;DHT22;3658;47.992;10.158;2023-03-11T02:30:18;21.00;31.80
7234;DHT22;3658;47.992;10.158;2023-03-11T02:32:47;21.00;31.90
7234;DHT22;3658;47.992;10.158;2023-03-11T02:35:14;21.00;31.90
7234;DHT22;3658;47.992;10.158;2023-03-11T02:37:45;21.00;31.90
7234;DHT22;3658;47.992;10.158;2023-03-11T02:40:45;21.00;31.80
7234;DHT22;3658;47.992;10.158;2023-03-11T02:43:17;20.90;31.70
7234;DHT22;3658;47.992;10.158;2023-03-11T02:45:46;21.00;31.80
7234;DHT22;3658;47.992;10.158;2023-03-11T02:48:15;21.00;31.80
7234;DHT22;3658;47.992;10.158;2023-03-11T02:50:43;21.00;31.80
7234;DHT22;3658;47.992;10.158;2023-03-11T02:53:11;21.00;31.80
7234;DHT22;3658;47.992;10.158;2023-03-11T02:55:38;21.00;31.80
7234;DHT22;3658;47.992;10.158;2023-03-11T02:58:05;21.00;31.80
7234;DHT22;3658;47.992;10.158;2023-03-11T03:00:33;21.00;31.80
7234;DHT22;3658;47.992;10.158;2023-03-11T03:03:00;21.00;31.80
7234;DHT22;3658;47.992;10.158;2023-03-11T03:05:27;21.00;32.10
7234;DHT22;3658;47.992;10.158;2023-03-11T03:07:54;21.00;31.80
7234;DHT22;3658;47.992;10.158;2023-03-11T03:10:22;20.90;31.70
7234;DHT22;3658;47.992;10.158;2023-03-11T03:12:49;20.90;31.60
7234;DHT22;3658;47.992;10.158;2023-03-11T03:15:16;21.00;31.70
7234;DHT22;3658;47.992;10.158;2023-03-11T03:17:45;21.00;31.70
7234;DHT22;3658;47.992;10.158;2023-03-11T03:20:13;20.90;31.60
7234;DHT22;3658;47.992;10.158;2023-03-11T03:22:41;21.00;31.70
7234;DHT22;3658;47.992;10.158;2023-03-11T03:25:09;21.00;31.70
7234;DHT22;3658;47.992;10.158;2023-03-11T03:27:36;21.10;31.80
7234;DHT22;3658;47.992;10.158;2023-03-11T03:30:05;20.90;31.60
7234;DHT22;3658;47.992;10.158;2023-03-11T03:32:33;21.00;31.60
7234;DHT22;3658;47.992;10.158;2023-03-11T03:35:01;20.90;31.60
7234;DHT22;3658;47.992;10.158;2023-03-11T03:37:31;21.00;31.70
7234;DHT22;3658;47.992;10.158;2023-03-11T03:39:58;20.90;31.50
7234;DHT22;3658;47.992;10.158;2023-03-11T03:42:26;20.90;31.60
7234;DHT22;3658;47.992;10.158;2023-03-11T03:44:53;20.90;31.60
7234;DHT22;3658;47.992;10.158;2023-03-11T03:47:20;20.90;31.50
7234;DHT22;3658;47.992;10.158;2023-03-11T03:49:47;20.90;31.60
7234;DHT22;3658;47.992;10.158;2023-03-11T03:52:16;20.90;31.60
7234;DHT22;3658;47.992;10.158;2023-03-11T03:54:43;20.90;31.60
7234;DHT22;3658;47.992;10.158;2023-03-11T03:57:10;20.90;31.50
7234;DHT22;3658;47.992;10.158;2023-03-11T03:59:37;20.90;31.50
7234;DHT22;3658;47.992;10.158;2023-03-11T04:02:04;20.90;31.50
7234;DHT22;3658;47.992;10.158;2023-03-11T04:04:31;20.90;31.40
7234;DHT22;3658;47.992;10.158;2023-03-11T04:06:58;20.90;31.50
7234;DHT22;3658;47.992;10.158;2023-03-11T04:09:27;20.90;31.50
7234;DHT22;3658;47.992;10.158;2023-03-11T04:11:54;20.90;31.50
7234;DHT22;3658;47.992;10.158;2023-03-11T04:14:21;20.90;31.40
7234;DHT22;3658;47.992;10.158;2023-03-11T04:16:48;20.90;31.40
7234;DHT22;3658;47.992;10.158;2023-03-11T04:19:15;20.90;31.50
7234;DHT22;3658;47.992;10.158;2023-03-11T04:21:42;20.90;31.40
7234;DHT22;3658;47.992;10.158;2023-03-11T04:24:09;20.90;31.40
7234;DHT22;3658;47.992;10.158;2023-03-11T04:26:37;20.90;31.40
7234;DHT22;3658;47.992;10.158;2023-03-11T04:29:04;20.90;31.50
7234;DHT22;3658;47.992;10.158;2023-03-11T04:31:31;20.90;31.50
7234;DHT22;3658;47.992;10.158;2023-03-11T04:33:58;20.90;31.40
7234;DHT22;3658;47.992;10.158;2023-03-11T04:36:25;20.90;31.40
7234;DHT22;3658;47.992;10.158;2023-03-11T04:38:52;20.90;31.40
7234;DHT22;3658;47.992;10.158;2023-03-11T04:41:20;20.90;31.40
7234;DHT22;3658;47.992;10.158;2023-03-11T04:43:49;20.90;31.30
7234;DHT22;3658;47.992;10.158;2023-03-11T04:46:16;20.90;31.30
7234;DHT22;3658;47.992;10.158;2023-03-11T04:48:43;20.90;31.30
7234;DHT22;3658;47.992;10.158;2023-03-11T04:51:10;20.90;31.30
7234;DHT22;3658;47.992;10.158;2023-03-11T04:53:36;20.90;31.30
7234;DHT22;3658;47.992;10.158;2023-03-11T04:56:04;20.90;31.30
7234;DHT22;3658;47.992;10.158;2023-03-11T04:58:31;20.90;31.30
7234;DHT22;3658;47.992;10.158;2023-03-11T05:00:59;20.90;31.30
7234;DHT22;3658;47.992;10.158;2023-03-11T05:03:26;20.90;31.40
7234;DHT22;3658;47.992;10.158;2023-03-11T05:05:53;20.90;31.30
7234;DHT22;3658;47.992;10.158;2023-03-11T05:08:22;20.90;31.30
7234;DHT22;3658;47.992;10.158;2023-03-11T05:10:50;20.90;31.20
7234;DHT22;3658;47.992;10.158;2023-03-11T05:13:18;20.90;31.30
7234;DHT22;3658;47.992;10.158;2023-03-11T05:15:45;20.90;31.20
7234;DHT22;3658;47.992;10.158;2023-03-11T05:18:14;20.90;31.30
7234;DHT22;3658;47.992;10.158;2023-03-11T05:20:41;20.90;31.20
7234;DHT22;3658;47.992;10.158;2023-03-11T05:23:08;20.90;31.20
7234;DHT22;3658;47.992;10.158;2023-03-11T05:25:35;20.90;31.20
7234;DHT22;3658;47.992;10.158;2023-03-11T05:28:02;20.90;31.20
7234;DHT22;3658;47.992;10.158;2023-03-11T05:30:30;20.90;31.20
7234;DHT22;3658;47.992;10.158;2023-03-11T05:32:57;20.90;31.20
7234;DHT22;3658;47.992;10.158;2023-03-11T05:35:25;20.90;31.20
7234;DHT22;3658;47.992;10.158;2023-03-11T05:37:52;20.90;31.20
7234;DHT22;3658;47.992;10.158;2023-03-11T05:40:20;20.90;31.20
7234;DHT22;3658;47.992;10.158;2023-03-11T05:42:47;20.90;31.20
7234;DHT22;3658;47.992;10.158;2023-03-11T05:45:14;20.90;31.20
7234;DHT22;3658;47.992;10.158;2023-03-11T05:47:41;20.90;31.20
7234;DHT22;3658;47.992;10.158;2023-03-11T05:50:09;20.80;31.10
7234;DHT22;3658;47.992;10.158;2023-03-11T05:52:38;20.80;31.10
7234;DHT22;3658;47.992;10.158;2023-03-11T05:55:05;20.90;31.20
7234;DHT22;3658;47.992;10.158;2023-03-11T05:57:34;20.90;31.20
7234;DHT22;3658;47.992;10.158;2023-03-11T06:00:03;20.90;31.10
7234;DHT22;3658;47.992;10.158;2023-03-11T06:02:31;20.90;31.10
7234;DHT22;3658;47.992;10.158;2023-03-11T06:04:58;20.80;31.00
7234;DHT22;3658;47.992;10.158;2023-03-11T06:07:25;20.90;31.00
7234;DHT22;3658;47.992;10.158;2023-03-11T06:09:54;20.80;31.00
7234;DHT22;3658;47.992;10.158;2023-03-11T06:12:21;20.90;31.10
7234;DHT22;3658;47.992;10.158;2023-03-11T06:14:48;20.90;31.10
7234;DHT22;3658;47.992;10.158;2023-03-11T06:17:15;20.80;31.00
7234;DHT22;3658;47.992;10.158;2023-03-11T06:19:42;20.90;31.10
7234;DHT22;3658;47.992;10.158;2023-03-11T06:22:08;20.90;31.10
7234;DHT22;3658;47.992;10.158;2023-03-11T06:24:35;20.90;31.50
7234;DHT22;3658;47.992;10.158;2023-03-11T06:27:04;20.80;32.00
7234;DHT22;3658;47.992;10.158;2023-03-11T06:29:33;20.90;32.70
7234;DHT22;3658;47.992;10.158;2023-03-11T06:32:00;20.90;32.90
7234;DHT22;3658;47.992;10.158;2023-03-11T06:34:27;20.90;33.00
7234;DHT22;3658;47.992;10.158;2023-03-11T06:36:54;20.90;33.00
7234;DHT22;3658;47.992;10.158;2023-03-11T06:39:21;20.90;33.10
7234;DHT22;3658;47.992;10.158;2023-03-11T06:41:48;20.90;33.10
7234;DHT22;3658;47.992;10.158;2023-03-11T06:44:17;20.90;33.10
7234;DHT22;3658;47.992;10.158;2023-03-11T06:46:43;20.80;33.00
7234;DHT22;3658;47.992;10.158;2023-03-11T06:49:10;20.90;33.10
7234;DHT22;3658;47.992;10.158;2023-03-11T06:51:37;20.90;33.10
7234;DHT22;3658;47.992;10.158;2023-03-11T06:54:04;20.90;33.20
7234;DHT22;3658;47.992;10.158;2023-03-11T06:56:32;20.90;33.30
7234;DHT22;3658;47.992;10.158;2023-03-11T06:58:59;20.90;33.20
7234;DHT22;3658;47.992;10.158;2023-03-11T07:01:28;20.90;33.30
7234;DHT22;3658;47.992;10.158;2023-03-11T07:03:55;20.90;33.30
7234;DHT22;3658;47.992;10.158;2023-03-11T07:06:24;20.90;33.30
7234;DHT22;3658;47.992;10.158;2023-03-11T07:08:52;20.90;34.10
7234;DHT22;3658;47.992;10.158;2023-03-11T07:11:20;20.90;33.40
7234;DHT22;3658;47.992;10.158;2023-03-11T07:13:48;20.90;33.50
7234;DHT22;3658;47.992;10.158;2023-03-11T07:16:16;20.90;34.10
7234;DHT22;3658;47.992;10.158;2023-03-11T07:18:46;20.90;33.50
7234;DHT22;3658;47.992;10.158;2023-03-11T07:21:15;20.90;33.50
7234;DHT22;3658;47.992;10.158;2023-03-11T07:23:43;20.90;33.40
7234;DHT22;3658;47.992;10.158;2023-03-11T07:26:12;20.90;33.60
7234;DHT22;3658;47.992;10.158;2023-03-11T07:28:40;20.90;33.60
7234;DHT22;3658;47.992;10.158;2023-03-11T07:31:09;20.90;33.60
7234;DHT22;3658;47.992;10.158;2023-03-11T07:33:36;20.90;33.60
7234;DHT22;3658;47.992;10.158;2023-03-11T07:36:06;20.90;33.60
7234;DHT22;3658;47.992;10.158;2023-03-11T07:38:34;20.90;33.60
7234;DHT22;3658;47.992;10.158;2023-03-11T07:41:01;20.90;33.60
7234;DHT22;3658;47.992;10.158;2023-03-11T07:43:28;20.90;33.60
7234;DHT22;3658;47.992;10.158;2023-03-11T07:46:03;20.90;33.60
7234;DHT22;3658;47.992;10.158;2023-03-11T07:48:30;20.90;33.60
7234;DHT22;3658;47.992;10.158;2023-03-11T07:51:02;20.90;33.60
7234;DHT22;3658;47.992;10.158;2023-03-11T07:53:31;20.90;33.50
7234;DHT22;3658;47.992;10.158;2023-03-11T07:55:59;20.90;33.50
7234;DHT22;3658;47.992;10.158;2023-03-11T07:58:26;20.90;34.10
7234;DHT22;3658;47.992;10.158;2023-03-11T08:00:54;20.90;34.00
7234;DHT22;3658;47.992;10.158;2023-03-11T08:03:23;20.90;33.30
7234;DHT22;3658;47.992;10.158;2023-03-11T08:05:50;20.90;33.30
7234;DHT22;3658;47.992;10.158;2023-03-11T08:08:18;20.90;33.20
7234;DHT22;3658;47.992;10.158;2023-03-11T08:10:46;20.90;33.30
7234;DHT22;3658;47.992;10.158;2023-03-11T08:13:13;20.90;33.30
7234;DHT22;3658;47.992;10.158;2023-03-11T08:15:40;20.90;33.30
7234;DHT22;3658;47.992;10.158;2023-03-11T08:18:08;20.90;33.20
7234;DHT22;3658;47.992;10.158;2023-03-11T08:20:37;20.90;33.20
7234;DHT22;3658;47.992;10.158;2023-03-11T08:23:04;20.90;33.30
7234;DHT22;3658;47.992;10.158;2023-03-11T08:25:31;20.90;33.20
7234;DHT22;3658;47.992;10.158;2023-03-11T08:27:59;20.80;33.20
7234;DHT22;3658;47.992;10.158;2023-03-11T08:30:26;20.90;33.20
7234;DHT22;3658;47.992;10.158;2023-03-11T08:32:53;20.90;33.20
7234;DHT22;3658;47.992;10.158;2023-03-11T08:35:20;20.90;33.20
7234;DHT22;3658;47.992;10.158;2023-03-11T08:37:47;20.90;33.20
7234;DHT22;3658;47.992;10.158;2023-03-11T08:40:14;20.80;33.10
7234;DHT22;3658;47.992;10.158;2023-03-11T08:42:41;20.90;33.20
7234;DHT22;3658;47.992;10.158;2023-03-11T08:45:10;20.90;33.20
7234;DHT22;3658;47.992;10.158;2023-03-11T08:47:38;20.90;33.20
7234;DHT22;3658;47.992;10.158;2023-03-11T08:50:10;20.80;33.10
7234;DHT22;3658;47.992;10.158;2023-03-11T08:52:37;20.80;33.10
7234;DHT22;3658;47.992;10.158;2023-03-11T08:55:06;20.80;33.10
7234;DHT22;3658;47.992;10.158;2023-03-11T08:57:36;20.90;33.30
7234;DHT22;3658;47.992;10.158;2023-03-11T09:00:04;20.80;33.10
7234;DHT22;3658;47.992;10.158;2023-03-11T09:02:35;20.80;33.10
7234;DHT22;3658;47.992;10.158;2023-03-11T09:05:02;20.80;33.10
7234;DHT22;3658;47.992;10.158;2023-03-11T09:07:30;20.80;33.10
7234;DHT22;3658;47.992;10.158;2023-03-11T09:09:57;20.80;33.10
7234;DHT22;3658;47.992;10.158;2023-03-11T09:12:24;20.80;33.10
7234;DHT22;3658;47.992;10.158;2023-03-11T09:14:51;20.80;33.10
7234;DHT22;3658;47.992;10.158;2023-03-11T09:17:19;20.80;33.10
7234;DHT22;3658;47.992;10.158;2023-03-11T09:19:47;20.80;33.10
7234;DHT22;3658;47.992;10.158;2023-03-11T09:22:15;20.80;33.00
7234;DHT22;3658;47.992;10.158;2023-03-11T09:24:42;20.80;33.00
7234;DHT22;3658;47.992;10.158;2023-03-11T09:27:09;20.80;33.00
7234;DHT22;3658;47.992;10.158;2023-03-11T09:29:37;20.80;33.10
7234;DHT22;3658;47.992;10.158;2023-03-11T09:32:04;20.80;33.10
7234;DHT22;3658;47.992;10.158;2023-03-11T09:34:32;20.80;33.10
7234;DHT22;3658;47.992;10.158;2023-03-11T09:37:01;20.80;33.70
7234;DHT22;3658;47.992;10.158;2023-03-11T09:39:28;20.80;33.10
7234;DHT22;3658;47.992;10.158;2023-03-11T09:41:57;20.80;33.10
7234;DHT22;3658;47.992;10.158;2023-03-11T09:44:28;20.80;33.10
7234;DHT22;3658;47.992;10.158;2023-03-11T09:47:18;20.80;33.10
7234;DHT22;3658;47.992;10.158;2023-03-11T09:50:05;20.80;33.10
7234;DHT22;3658;47.992;10.158;2023-03-11T09:52:43;20.80;33.10
7234;DHT22;3658;47.992;10.158;2023-03-11T09:55:24;20.80;33.10
7234;DHT22;3658;47.992;10.158;2023-03-11T09:57:53;20.80;33.10
7234;DHT22;3658;47.992;10.158;2023-03-11T10:00:22;20.80;33.10
7234;DHT22;3658;47.992;10.158;2023-03-11T10:02:50;20.80;33.50
7234;DHT22;3658;47.992;10.158;2023-03-11T10:05:21;20.80;33.60
7234;DHT22;3658;47.992;10.158;2023-03-11T10:07:54;20.90;33.50
7234;DHT22;3658;47.992;10.158;2023-03-11T10:10:26;20.80;33.50
7234;DHT22;3658;47.992;10.158;2023-03-11T10:12:59;20.80;33.50
7234;DHT22;3658;47.992;10.158;2023-03-11T10:15:38;20.80;33.50
7234;DHT22;3658;47.992;10.158;2023-03-11T10:18:20;20.80;33.60
7234;DHT22;3658;47.992;10.158;2023-03-11T10:20:53;20.80;33.60
7234;DHT22;3658;47.992;10.158;2023-03-11T10:23:29;20.80;33.60
7234;DHT22;3658;47.992;10.158;2023-03-11T10:26:06;20.80;33.80
7234;DHT22;3658;47.992;10.158;2023-03-11T10:28:41;20.80;33.60
7234;DHT22;3658;47.992;10.158;2023-03-11T10:31:18;20.80;33.60
7234;DHT22;3658;47.992;10.158;2023-03-11T10:33:49;20.80;33.60
7234;DHT22;3658;47.992;10.158;2023-03-11T10:36:18;20.70;33.50
7234;DHT22;3658;47.992;10.158;2023-03-11T10:38:51;20.70;33.40
7234;DHT22;3658;47.992;10.158;2023-03-11T10:41:22;20.70;33.50
7234;DHT22;3658;47.992;10.158;2023-03-11T10:43:53;20.70;33.40
7234;DHT22;3658;47.992;10.158;2023-03-11T10:46:24;20.70;33.50
7234;DHT22;3658;47.992;10.158;2023-03-11T10:48:52;20.70;33.50
7234;DHT22;3658;47.992;10.158;2023-03-11T10:51:20;20.70;33.50
7234;DHT22;3658;47.992;10.158;2023-03-11T10:53:51;20.70;33.50
7234;DHT22;3658;47.992;10.158;2023-03-11T10:56:28;20.70;33.50
7234;DHT22;3658;47.992;10.158;2023-03-11T10:58:55;20.70;33.40
7234;DHT22;3658;47.992;10.158;2023-03-11T11:01:24;20.70;33.40
7234;DHT22;3658;47.992;10.158;2023-03-11T11:03:52;20.70;33.40
7234;DHT22;3658;47.992;10.158;2023-03-11T11:06:24;20.70;33.40
7234;DHT22;3658;47.992;10.158;2023-03-11T11:09:15;20.70;33.30
7234;DHT22;3658;47.992;10.158;2023-03-11T11:12:00;20.60;33.30
7234;DHT22;3658;47.992;10.158;2023-03-11T11:14:44;20.70;33.30
7234;DHT22;3658;47.992;10.158;2023-03-11T11:17:19;20.70;33.30
7234;DHT22;3658;47.992;10.158;2023-03-11T11:19:49;20.60;33.20
7234;DHT22;3658;47.992;10.158;2023-03-11T11:22:19;20.60;33.20
7234;DHT22;3658;47.992;10.158;2023-03-11T11:24:49;20.60;33.20
7234;DHT22;3658;47.992;10.158;2023-03-11T11:27:18;20.60;33.20
7234;DHT22;3658;47.992;10.158;2023-03-11T11:29:47;20.60;33.20
7234;DHT22;3658;47.992;10.158;2023-03-11T11:32:18;20.60;33.20
7234;DHT22;3658;47.992;10.158;2023-03-11T11:35:04;20.60;33.20
7234;DHT22;3658;47.992;10.158;2023-03-11T11:37:33;20.60;33.20
7234;DHT22;3658;47.992;10.158;2023-03-11T11:40:05;20.60;33.10
7234;DHT22;3658;47.992;10.158;2023-03-11T11:42:36;20.60;33.10
7234;DHT22;3658;47.992;10.158;2023-03-11T11:45:12;20.60;33.10
7234;DHT22;3658;47.992;10.158;2023-03-11T11:47:43;20.60;33.10
7234;DHT22;3658;47.992;10.158;2023-03-11T11:50:17;20.60;33.10
7234;DHT22;3658;47.992;10.158;2023-03-11T11:52:50;20.60;33.10
7234;DHT22;3658;47.992;10.158;2023-03-11T11:55:23;20.60;33.10
7234;DHT22;3658;47.992;10.158;2023-03-11T11:57:54;20.60;33.10
7234;DHT22;3658;47.992;10.158;2023-03-11T12:00:23;20.60;33.10
7234;DHT22;3658;47.992;10.158;2023-03-11T12:03:10;20.60;33.10
7234;DHT22;3658;47.992;10.158;2023-03-11T12:05:51;20.60;33.10
7234;DHT22;3658;47.992;10.158;2023-03-11T12:08:24;20.60;33.10
7234;DHT22;3658;47.992;10.158;2023-03-11T12:10:59;20.60;33.10
7234;DHT22;3658;47.992;10.158;2023-03-11T12:13:46;20.60;33.00
7234;DHT22;3658;47.992;10.158;2023-03-11T12:16:22;20.50;33.60
7234;DHT22;3658;47.992;10.158;2023-03-11T12:18:54;20.60;33.10
7234;DHT22;3658;47.992;10.158;2023-03-11T12:21:37;20.50;33.10
7234;DHT22;3658;47.992;10.158;2023-03-11T12:24:20;20.50;33.10
7234;DHT22;3658;47.992;10.158;2023-03-11T12:26:57;20.50;33.00
7234;DHT22;3658;47.992;10.158;2023-03-11T12:29:27;20.50;33.10
7234;DHT22;3658;47.992;10.158;2023-03-11T12:31:56;20.50;33.10
7234;DHT22;3658;47.992;10.158;2023-03-11T12:34:26;20.50;33.00
7234;DHT22;3658;47.992;10.158;2023-03-11T12:36:55;20.50;33.10
7234;DHT22;3658;47.992;10.158;2023-03-11T12:39:27;20.50;33.00
7234;DHT22;3658;47.992;10.158;2023-03-11T12:42:15;20.50;33.00
7234;DHT22;3658;47.992;10.158;2023-03-11T12:44:44;20.50;33.10
7234;DHT22;3658;47.992;10.158;2023-03-11T12:47:24;20.50;33.10
7234;DHT22;3658;47.992;10.158;2023-03-11T12:49:54;20.50;33.10
7234;DHT22;3658;47.992;10.158;2023-03-11T12:52:25;20.50;33.10
7234;DHT22;3658;47.992;10.158;2023-03-11T12:55:34;20.50;33.10
7234;DHT22;3658;47.992;10.158;2023-03-11T13:01:23;20.50;33.10
7234;DHT22;3658;47.992;10.158;2023-03-11T13:04:04;20.50;33.10
7234;DHT22;3658;47.992;10.158;2023-03-11T13:10:01;20.50;33.10
7234;DHT22;3658;47.992;10.158;2023-03-11T13:12:40;20.50;33.10
7234;DHT22;3658;47.992;10.158;2023-03-11T13:15:30;20.50;33.10
7234;DHT22;3658;47.992;10.158;2023-03-11T13:18:00;20.50;33.10
7234;DHT22;3658;47.992;10.158;2023-03-11T13:20:59;20.50;33.10
7234;DHT22;3658;47.992;10.158;2023-03-11T13:23:34;20.50;33.10
7234;DHT22;3658;47.992;10.158;2023-03-11T13:26:21;20.50;33.10
7234;DHT22;3658;47.992;10.158;2023-03-11T13:29:17;20.50;33.10
7234;DHT22;3658;47.992;10.158;2023-03-11T13:32:08;20.50;33.10
7234;DHT22;3658;47.992;10.158;2023-03-11T13:34:49;20.40;32.90
7234;DHT22;3658;47.992;10.158;2023-03-11T13:37:26;20.50;33.00
7234;DHT22;3658;47.992;10.158;2023-03-11T13:42:43;20.40;33.00
7234;DHT22;3658;47.992;10.158;2023-03-11T13:45:21;20.40;33.00
7234;DHT22;3658;47.992;10.158;2023-03-11T13:47:52;20.40;33.00
7234;DHT22;3658;47.992;10.158;2023-03-11T13:50:24;20.40;32.90
7234;DHT22;3658;47.992;10.158;2023-03-11T13:52:53;20.40;33.00
7234;DHT22;3658;47.992;10.158;2023-03-11T13:55:22;20.40;33.00
7234;DHT22;3658;47.992;10.158;2023-03-11T13:57:52;20.40;33.00
7234;DHT22;3658;47.992;10.158;2023-03-11T14:00:20;20.40;33.00
7234;DHT22;3658;47.992;10.158;2023-03-11T14:02:50;20.40;33.10
7234;DHT22;3658;47.992;10.158;2023-03-11T14:05:23;20.40;33.10
7234;DHT22;3658;47.992;10.158;2023-03-11T14:07:51;20.40;33.00
7234;DHT22;3658;47.992;10.158;2023-03-11T14:10:24;20.40;33.10
7234;DHT22;3658;47.992;10.158;2023-03-11T14:13:04;20.40;33.00
7234;DHT22;3658;47.992;10.158;2023-03-11T14:15:39;20.40;33.10
7234;DHT22;3658;47.992;10.158;2023-03-11T14:18:33;20.40;33.10
7234;DHT22;3658;47.992;10.158;2023-03-11T14:21:03;20.40;33.10
7234;DHT22;3658;47.992;10.158;2023-03-11T14:23:33;20.40;33.00
7234;DHT22;3658;47.992;10.158;2023-03-11T14:26:03;20.40;33.10
7234;DHT22;3658;47.992;10.158;2023-03-11T14:28:34;20.40;33.10
7234;DHT22;3658;47.992;10.158;2023-03-11T14:31:03;20.40;33.00
7234;DHT22;3658;47.992;10.158;2023-03-11T14:33:30;20.40;33.00
7234;DHT22;3658;47.992;10.158;2023-03-11T14:35:58;20.40;33.00
7234;DHT22;3658;47.992;10.158;2023-03-11T14:38:28;20.40;33.00
7234;DHT22;3658;47.992;10.158;2023-03-11T14:40:57;20.40;33.00
7234;DHT22;3658;47.992;10.158;2023-03-11T14:43:26;20.40;33.00
7234;DHT22;3658;47.992;10.158;2023-03-11T14:45:54;20.40;33.10
7234;DHT22;3658;47.992;10.158;2023-03-11T14:48:25;20.40;33.00
7234;DHT22;3658;47.992;10.158;2023-03-11T14:50:56;20.40;33.00
7234;DHT22;3658;47.992;10.158;2023-03-11T14:53:27;20.40;33.00
7234;DHT22;3658;47.992;10.158;2023-03-11T14:55:57;20.40;33.00
7234;DHT22;3658;47.992;10.158;2023-03-11T14:58:29;20.40;33.10
7234;DHT22;3658;47.992;10.158;2023-03-11T15:01:03;20.30;32.90
7234;DHT22;3658;47.992;10.158;2023-03-11T15:03:33;20.40;33.00
7234;DHT22;3658;47.992;10.158;2023-03-11T15:06:03;20.40;33.10
7234;DHT22;3658;47.992;10.158;2023-03-11T15:08:36;20.40;33.00
7234;DHT22;3658;47.992;10.158;2023-03-11T15:11:17;20.40;33.10
7234;DHT22;3658;47.992;10.158;2023-03-11T15:13:46;20.30;32.90
7234;DHT22;3658;47.992;10.158;2023-03-11T15:16:29;20.40;33.00
7234;DHT22;3658;47.992;10.158;2023-03-11T15:18:59;20.30;32.90
7234;DHT22;3658;47.992;10.158;2023-03-11T15:21:27;20.30;32.90
7234;DHT22;3658;47.992;10.158;2023-03-11T15:23:59;20.30;32.90
7234;DHT22;3658;47.992;10.158;2023-03-11T15:26:28;20.30;32.90
7234;DHT22;3658;47.992;10.158;2023-03-11T15:28:57;20.30;32.90
7234;DHT22;3658;47.992;10.158;2023-03-11T15:31:28;20.30;32.90
7234;DHT22;3658;47.992;10.158;2023-03-11T15:34:10;20.30;32.90
7234;DHT22;3658;47.992;10.158;2023-03-11T15:37:01;20.30;32.90
7234;DHT22;3658;47.992;10.158;2023-03-11T15:39:43;20.30;33.00
7234;DHT22;3658;47.992;10.158;2023-03-11T15:42:20;20.30;32.90
7234;DHT22;3658;47.992;10.158;2023-03-11T15:45:16;20.30;32.90
7234;DHT22;3658;47.992;10.158;2023-03-11T15:47:45;20.30;32.90
7234;DHT22;3658;47.992;10.158;2023-03-11T15:50:21;20.30;33.00
7234;DHT22;3658;47.992;10.158;2023-03-11T15:52:53;20.30;32.70
7234;DHT22;3658;47.992;10.158;2023-03-11T15:55:23;20.20;31.30
7234;DHT22;3658;47.992;10.158;2023-03-11T15:57:55;20.10;29.70
7234;DHT22;3658;47.992;10.158;2023-03-11T16:00:24;20.00;27.90
7234;DHT22;3658;47.992;10.158;2023-03-11T16:02:51;20.00;27.50
7234;DHT22;3658;47.992;10.158;2023-03-11T16:05:22;20.00;27.20
7234;DHT22;3658;47.992;10.158;2023-03-11T16:07:50;20.00;27.30
7234;DHT22;3658;47.992;10.158;2023-03-11T16:10:19;19.90;27.00
7234;DHT22;3658;47.992;10.158;2023-03-11T16:12:48;19.90;26.50
7234;DHT22;3658;47.992;10.158;2023-03-11T16:15:20;19.90;26.10